sensor_id;sensor_type;location;lat;lon;timestamp;pressure;altitude;pressure_sealevel;temperature;humidity
78198;BME280;67472;51.554;7.812;2023-04-25T00:02:05;100049.81;;;6.17;100.00
78198;BME280;67472;51.554;7.812;2023-04-25T00:04:51;100049.81;;;6.17;100.00
78198;BME280;67472;51.554;7.812;2023-04-25T00:07:38;100049.19;;;6.13;100.00
78198;BME280;67472;51.554;7.812;2023-04-25T00:10:26;100054.34;;;6.15;100.00
78198;BME280;67472;51.554;7.812;2023-04-25T00:13:12;100058.00;;;6.12;100.00
78198;BME280;67472;51.554;7.812;2023-04-25T00:15:58;100059.44;;;6.16;100.00
78198;BME280;67472;51.554;7.812;2023-04-25T00:18:45;100054.03;;;6.07;100.00
78198;BME280;67472;51.554;7.812;2023-04-25T00:21:36;100057.97;;;6.01;100.00
78198;BME280;67472;51.554;7.812;2023-04-25T00:24:25;100055.72;;;6.08;100.00
78198;BME280;67472;51.554;7.812;2023-04-25T00:27:13;100060.03;;;6.09;100.00
78198;BME280;67472;51.554;7.812;2023-04-25T00:30:00;100054.66;;;6.10;100.00
78198;BME280;67472;51.554;7.812;2023-04-25T00:32:46;100060.88;;;6.09;100.00
78198;BME280;67472;51.554;7.812;2023-04-25T00:35:34;100061.00;;;6.19;100.00
78198;BME280;67472;51.554;7.812;2023-04-25T00:38:20;100058.06;;;6.23;100.00
78198;BME280;67472;51.554;7.812;2023-04-25T00:41:07;100070.50;;;6.33;100.00
78198;BME280;67472;51.554;7.812;2023-04-25T00:43:56;100063.31;;;6.35;100.00
78198;BME280;67472;51.554;7.812;2023-04-25T00:46:42;100072.63;;;6.39;100.00
78198;BME280;67472;51.554;7.812;2023-04-25T00:49:29;100062.88;;;6.41;100.00
78198;BME280;67472;51.554;7.812;2023-04-25T00:52:16;100065.25;;;6.44;100.00
78198;BME280;67472;51.554;7.812;2023-04-25T00:55:02;100066.34;;;6.52;100.00
78198;BME280;67472;51.554;7.812;2023-04-25T00:57:50;100061.94;;;6.53;100.00
78198;BME280;67472;51.554;7.812;2023-04-25T01:00:37;100065.19;;;6.67;100.00
78198;BME280;67472;51.554;7.812;2023-04-25T01:03:24;100053.47;;;6.60;100.00
78198;BME280;67472;51.554;7.812;2023-04-25T01:06:13;100051.09;;;6.68;100.00
78198;BME280;67472;51.554;7.812;2023-04-25T01:08:59;100060.28;;;6.74;100.00
78198;BME280;67472;51.554;7.812;2023-04-25T01:11:46;100057.81;;;6.72;100.00
78198;BME280;67472;51.554;7.812;2023-04-25T01:14:32;100053.63;;;6.70;100.00
78198;BME280;67472;51.554;7.812;2023-04-25T01:17:20;100062.44;;;6.80;100.00
78198;BME280;67472;51.554;7.812;2023-04-25T01:20:09;100059.81;;;6.80;100.00
78198;BME280;67472;51.554;7.812;2023-04-25T01:22:58;100061.28;;;6.84;100.00
78198;BME280;67472;51.554;7.812;2023-04-25T01:25:45;100061.88;;;6.88;100.00
78198;BME280;67472;51.554;7.812;2023-04-25T01:28:32;100059.72;;;6.93;100.00
78198;BME280;67472;51.554;7.812;2023-04-25T01:31:19;100059.94;;;7.01;100.00
78198;BME280;67472;51.554;7.812;2023-04-25T01:34:06;100062.22;;;7.05;100.00
78198;BME280;67472;51.554;7.812;2023-04-25T01:36:53;100060.09;;;6.99;100.00
78198;BME280;67472;51.554;7.812;2023-04-25T01:39:40;100061.16;;;7.08;100.00
78198;BME280;67472;51.554;7.812;2023-04-25T01:42:27;100059.59;;;7.05;100.00
78198;BME280;67472;51.554;7.812;2023-04-25T01:45:13;100062.34;;;7.04;100.00
78198;BME280;67472;51.554;7.812;2023-04-25T01:47:59;100066.03;;;7.01;100.00
78198;BME280;67472;51.554;7.812;2023-04-25T01:50:45;100070.81;;;6.96;100.00
78198;BME280;67472;51.554;7.812;2023-04-25T01:53:33;100067.22;;;6.97;100.00
78198;BME280;67472;51.554;7.812;2023-04-25T01:56:23;100077.72;;;6.97;100.00
78198;BME280;67472;51.554;7.812;2023-04-25T01:59:09;100078.44;;;6.88;100.00
78198;BME280;67472;51.554;7.812;2023-04-25T02:02:14;100091.56;;;6.88;100.00
78198;BME280;67472;51.554;7.812;2023-04-25T02:05:00;100095.41;;;6.95;100.00
78198;BME280;67472;51.554;7.812;2023-04-25T02:07:48;100100.03;;;6.92;100.00
78198;BME280;67472;51.554;7.812;2023-04-25T02:10:35;100096.72;;;6.90;100.00
78198;BME280;67472;51.554;7.812;2023-04-25T02:13:39;100102.28;;;6.85;100.00
78198;BME280;67472;51.554;7.812;2023-04-25T02:17:01;100112.31;;;6.80;100.00
78198;BME280;67472;51.554;7.812;2023-04-25T02:19:49;100115.31;;;6.87;100.00
78198;BME280;67472;51.554;7.812;2023-04-25T02:22:36;100114.47;;;6.75;100.00
78198;BME280;67472;51.554;7.812;2023-04-25T02:25:24;100119.00;;;6.84;100.00
78198;BME280;67472;51.554;7.812;2023-04-25T02:28:11;100110.53;;;6.92;100.00
78198;BME280;67472;51.554;7.812;2023-04-25T02:30:59;100113.41;;;6.89;100.00
78198;BME280;67472;51.554;7.812;2023-04-25T02:33:46;100115.41;;;6.85;100.00
78198;BME280;67472;51.554;7.812;2023-04-25T02:36:32;100119.13;;;6.82;100.00
78198;BME280;67472;51.554;7.812;2023-04-25T02:39:20;100127.34;;;6.78;100.00
78198;BME280;67472;51.554;7.812;2023-04-25T02:42:08;100126.06;;;6.83;100.00
78198;BME280;67472;51.554;7.812;2023-04-25T02:44:54;100130.31;;;6.73;100.00
78198;BME280;67472;51.554;7.812;2023-04-25T02:47:42;100144.97;;;6.65;100.00
78198;BME280;67472;51.554;7.812;2023-04-25T02:50:29;100147.22;;;6.58;100.00
78198;BME280;67472;51.554;7.812;2023-04-25T02:53:16;100151.63;;;6.58;100.00
78198;BME280;67472;51.554;7.812;2023-04-25T02:56:07;100157.56;;;6.49;100.00
78198;BME280;67472;51.554;7.812;2023-04-25T02:58:53;100163.91;;;6.57;100.00
78198;BME280;67472;51.554;7.812;2023-04-25T03:01:40;100173.72;;;6.66;100.00
78198;BME280;67472;51.554;7.812;2023-04-25T03:04:28;100175.06;;;6.72;100.00
78198;BME280;67472;51.554;7.812;2023-04-25T03:07:14;100189.53;;;6.89;100.00
78198;BME280;67472;51.554;7.812;2023-04-25T03:10:00;100188.91;;;6.85;100.00
78198;BME280;67472;51.554;7.812;2023-04-25T03:12:49;100194.00;;;6.64;100.00
78198;BME280;67472;51.554;7.812;2023-04-25T03:15:36;100186.94;;;6.65;100.00
78198;BME280;67472;51.554;7.812;2023-04-25T03:18:22;100195.66;;;6.65;100.00
78198;BME280;67472;51.554;7.812;2023-04-25T03:21:10;100195.44;;;6.68;100.00
78198;BME280;67472;51.554;7.812;2023-04-25T03:23:56;100205.38;;;6.76;100.00
78198;BME280;67472;51.554;7.812;2023-04-25T03:26:42;100205.22;;;6.66;100.00
78198;BME280;67472;51.554;7.812;2023-04-25T03:29:28;100206.47;;;6.50;100.00
78198;BME280;67472;51.554;7.812;2023-04-25T03:32:16;100207.28;;;6.50;100.00
78198;BME280;67472;51.554;7.812;2023-04-25T03:35:02;100210.97;;;6.48;100.00
78198;BME280;67472;51.554;7.812;2023-04-25T03:37:51;100212.06;;;6.56;100.00
78198;BME280;67472;51.554;7.812;2023-04-25T03:40:43;100215.06;;;6.52;100.00
78198;BME280;67472;51.554;7.812;2023-04-25T03:43:32;100224.22;;;6.46;100.00
78198;BME280;67472;51.554;7.812;2023-04-25T03:46:23;100222.53;;;6.45;100.00
78198;BME280;67472;51.554;7.812;2023-04-25T03:49:10;100231.13;;;6.47;100.00
78198;BME280;67472;51.554;7.812;2023-04-25T03:52:13;100229.94;;;6.51;100.00
78198;BME280;67472;51.554;7.812;2023-04-25T03:55:00;100233.50;;;6.50;100.00
78198;BME280;67472;51.554;7.812;2023-04-25T03:57:47;100235.41;;;6.48;100.00
78198;BME280;67472;51.554;7.812;2023-04-25T04:00:34;100235.88;;;6.42;100.00
78198;BME280;67472;51.554;7.812;2023-04-25T04:03:21;100238.88;;;6.49;100.00
78198;BME280;67472;51.554;7.812;2023-04-25T04:06:07;100244.84;;;6.51;100.00
78198;BME280;67472;51.554;7.812;2023-04-25T04:08:59;100246.31;;;6.55;100.00
78198;BME280;67472;51.554;7.812;2023-04-25T04:11:47;100252.44;;;6.66;100.00
78198;BME280;67472;51.554;7.812;2023-04-25T04:14:33;100247.03;;;6.57;100.00
78198;BME280;67472;51.554;7.812;2023-04-25T04:17:19;100252.50;;;6.54;100.00
78198;BME280;67472;51.554;7.812;2023-04-25T04:20:07;100250.28;;;6.60;100.00
78198;BME280;67472;51.554;7.812;2023-04-25T04:22:54;100255.25;;;6.52;100.00
78198;BME280;67472;51.554;7.812;2023-04-25T04:25:42;100254.84;;;6.69;100.00
78198;BME280;67472;51.554;7.812;2023-04-25T04:28:42;100251.75;;;6.64;100.00
78198;BME280;67472;51.554;7.812;2023-04-25T04:31:58;100255.03;;;6.55;100.00
78198;BME280;67472;51.554;7.812;2023-04-25T04:34:46;100253.34;;;6.54;100.00
78198;BME280;67472;51.554;7.812;2023-04-25T04:37:35;100251.78;;;6.52;100.00
78198;BME280;67472;51.554;7.812;2023-04-25T04:40:21;100260.28;;;6.55;100.00
78198;BME280;67472;51.554;7.812;2023-04-25T04:43:19;100266.28;;;6.68;100.00
78198;BME280;67472;51.554;7.812;2023-04-25T04:46:22;100271.09;;;6.74;100.00
78198;BME280;67472;51.554;7.812;2023-04-25T04:49:26;100269.41;;;6.73;100.00
78198;BME280;67472;51.554;7.812;2023-04-25T04:52:39;100268.81;;;6.70;100.00
78198;BME280;67472;51.554;7.812;2023-04-25T04:55:51;100280.97;;;6.71;100.00
78198;BME280;67472;51.554;7.812;2023-04-25T04:59:00;100282.44;;;6.75;100.00
78198;BME280;67472;51.554;7.812;2023-04-25T05:02:14;100288.88;;;6.82;100.00
78198;BME280;67472;51.554;7.812;2023-04-25T05:05:09;100290.41;;;6.73;100.00
78198;BME280;67472;51.554;7.812;2023-04-25T05:08:16;100293.25;;;6.70;100.00
78198;BME280;67472;51.554;7.812;2023-04-25T05:11:29;100288.63;;;6.74;100.00
78198;BME280;67472;51.554;7.812;2023-04-25T05:14:28;100296.00;;;6.69;100.00
78198;BME280;67472;51.554;7.812;2023-04-25T05:17:36;100297.25;;;6.76;100.00
78198;BME280;67472;51.554;7.812;2023-04-25T05:20:49;100294.94;;;6.71;100.00
78198;BME280;67472;51.554;7.812;2023-04-25T05:23:55;100303.16;;;6.91;100.00
78198;BME280;67472;51.554;7.812;2023-04-25T05:26:41;100293.09;;;6.85;100.00
78198;BME280;67472;51.554;7.812;2023-04-25T05:29:45;100309.66;;;6.85;100.00
78198;BME280;67472;51.554;7.812;2023-04-25T05:32:55;100304.59;;;6.95;100.00
78198;BME280;67472;51.554;7.812;2023-04-25T05:35:42;100303.38;;;6.88;100.00
78198;BME280;67472;51.554;7.812;2023-04-25T05:38:29;100307.38;;;6.80;100.00
78198;BME280;67472;51.554;7.812;2023-04-25T05:41:34;100299.66;;;6.79;100.00
78198;BME280;67472;51.554;7.812;2023-04-25T05:44:41;100299.72;;;7.01;100.00
78198;BME280;67472;51.554;7.812;2023-04-25T05:47:58;100305.84;;;7.13;100.00
78198;BME280;67472;51.554;7.812;2023-04-25T05:50:57;100298.66;;;7.04;100.00
78198;BME280;67472;51.554;7.812;2023-04-25T05:54:19;100297.25;;;7.11;100.00
78198;BME280;67472;51.554;7.812;2023-04-25T05:57:05;100298.72;;;7.26;100.00
78198;BME280;67472;51.554;7.812;2023-04-25T05:59:52;100302.00;;;7.40;100.00
78198;BME280;67472;51.554;7.812;2023-04-25T06:02:40;100298.91;;;7.47;100.00
78198;BME280;67472;51.554;7.812;2023-04-25T06:05:29;100295.63;;;7.32;100.00
78198;BME280;67472;51.554;7.812;2023-04-25T06:08:15;100293.16;;;7.42;100.00
78198;BME280;67472;51.554;7.812;2023-04-25T06:11:02;100285.16;;;7.43;100.00
78198;BME280;67472;51.554;7.812;2023-04-25T06:13:48;100292.84;;;7.57;100.00
78198;BME280;67472;51.554;7.812;2023-04-25T06:16:36;100291.38;;;7.53;100.00
78198;BME280;67472;51.554;7.812;2023-04-25T06:19:22;100289.13;;;7.49;100.00
78198;BME280;67472;51.554;7.812;2023-04-25T06:22:10;100279.09;;;7.65;100.00
78198;BME280;67472;51.554;7.812;2023-04-25T06:24:58;100285.44;;;7.62;100.00
78198;BME280;67472;51.554;7.812;2023-04-25T06:27:46;100283.53;;;7.64;100.00
78198;BME280;67472;51.554;7.812;2023-04-25T06:30:32;100282.72;;;7.75;100.00
78198;BME280;67472;51.554;7.812;2023-04-25T06:33:25;100281.75;;;7.98;100.00
78198;BME280;67472;51.554;7.812;2023-04-25T06:36:13;100275.41;;;8.01;100.00
78198;BME280;67472;51.554;7.812;2023-04-25T06:39:03;100280.78;;;7.99;100.00
78198;BME280;67472;51.554;7.812;2023-04-25T06:41:51;100278.84;;;8.01;100.00
78198;BME280;67472;51.554;7.812;2023-04-25T06:45:13;100278.75;;;8.03;100.00
78198;BME280;67472;51.554;7.812;2023-04-25T06:48:00;100283.66;;;7.96;100.00
78198;BME280;67472;51.554;7.812;2023-04-25T06:50:47;100276.00;;;8.04;100.00
78198;BME280;67472;51.554;7.812;2023-04-25T06:53:33;100276.50;;;7.98;100.00
78198;BME280;67472;51.554;7.812;2023-04-25T06:56:24;100275.53;;;7.88;100.00
78198;BME280;67472;51.554;7.812;2023-04-25T06:59:22;100265.38;;;7.94;100.00
78198;BME280;67472;51.554;7.812;2023-04-25T07:02:09;100273.75;;;7.88;100.00
78198;BME280;67472;51.554;7.812;2023-04-25T07:04:56;100274.69;;;7.98;100.00
78198;BME280;67472;51.554;7.812;2023-04-25T07:07:45;100274.09;;;8.28;100.00
78198;BME280;67472;51.554;7.812;2023-04-25T07:10:31;100271.31;;;8.41;100.00
78198;BME280;67472;51.554;7.812;2023-04-25T07:13:19;100260.78;;;8.52;100.00
78198;BME280;67472;51.554;7.812;2023-04-25T07:16:05;100263.53;;;8.39;100.00
78198;BME280;67472;51.554;7.812;2023-04-25T07:18:53;100261.78;;;8.29;100.00
78198;BME280;67472;51.554;7.812;2023-04-25T07:21:39;100265.94;;;8.42;100.00
78198;BME280;67472;51.554;7.812;2023-04-25T07:24:26;100276.34;;;8.44;100.00
78198;BME280;67472;51.554;7.812;2023-04-25T07:27:14;100273.47;;;8.36;100.00
78198;BME280;67472;51.554;7.812;2023-04-25T07:30:23;100268.91;;;8.49;100.00
78198;BME280;67472;51.554;7.812;2023-04-25T07:33:10;100266.66;;;8.11;100.00
78198;BME280;67472;51.554;7.812;2023-04-25T07:35:56;100262.81;;;8.48;100.00
78198;BME280;67472;51.554;7.812;2023-04-25T07:38:42;100271.22;;;8.74;100.00
78198;BME280;67472;51.554;7.812;2023-04-25T07:41:29;100263.56;;;8.71;100.00
78198;BME280;67472;51.554;7.812;2023-04-25T07:44:15;100263.06;;;8.77;100.00
78198;BME280;67472;51.554;7.812;2023-04-25T07:47:04;100283.94;;;9.22;100.00
78198;BME280;67472;51.554;7.812;2023-04-25T07:49:52;100278.31;;;8.94;100.00
78198;BME280;67472;51.554;7.812;2023-04-25T07:52:40;100272.84;;;8.55;100.00
78198;BME280;67472;51.554;7.812;2023-04-25T07:55:41;100269.75;;;8.16;100.00
78198;BME280;67472;51.554;7.812;2023-04-25T07:58:34;100283.50;;;8.42;100.00
78198;BME280;67472;51.554;7.812;2023-04-25T08:01:22;100291.19;;;8.12;100.00
78198;BME280;67472;51.554;7.812;2023-04-25T08:04:17;100299.78;;;8.25;100.00
78198;BME280;67472;51.554;7.812;2023-04-25T08:07:13;100315.16;;;8.63;100.00
78198;BME280;67472;51.554;7.812;2023-04-25T08:10:08;100299.44;;;8.83;100.00
78198;BME280;67472;51.554;7.812;2023-04-25T08:12:54;100282.28;;;8.89;100.00
78198;BME280;67472;51.554;7.812;2023-04-25T08:15:42;100280.13;;;8.94;100.00
78198;BME280;67472;51.554;7.812;2023-04-25T08:18:28;100283.03;;;9.12;100.00
78198;BME280;67472;51.554;7.812;2023-04-25T08:21:16;100277.03;;;8.89;100.00
78198;BME280;67472;51.554;7.812;2023-04-25T08:24:03;100274.00;;;8.73;100.00
78198;BME280;67472;51.554;7.812;2023-04-25T08:26:54;100286.22;;;8.94;100.00
78198;BME280;67472;51.554;7.812;2023-04-25T08:29:42;100298.19;;;8.98;100.00
78198;BME280;67472;51.554;7.812;2023-04-25T08:32:28;100291.41;;;9.37;100.00
78198;BME280;67472;51.554;7.812;2023-04-25T08:35:33;100270.19;;;9.59;100.00
78198;BME280;67472;51.554;7.812;2023-04-25T08:38:21;100255.28;;;9.79;100.00
78198;BME280;67472;51.554;7.812;2023-04-25T08:41:08;100275.31;;;9.91;100.00
78198;BME280;67472;51.554;7.812;2023-04-25T08:43:57;100283.19;;;9.82;97.60
78198;BME280;67472;51.554;7.812;2023-04-25T08:46:46;100297.91;;;9.54;96.79
78198;BME280;67472;51.554;7.812;2023-04-25T08:49:45;100315.00;;;9.59;99.89
78198;BME280;67472;51.554;7.812;2023-04-25T08:52:36;100326.69;;;9.66;100.00
78198;BME280;67472;51.554;7.812;2023-04-25T08:55:26;100324.38;;;9.11;99.60
78198;BME280;67472;51.554;7.812;2023-04-25T08:58:16;100333.25;;;9.31;99.57
78198;BME280;67472;51.554;7.812;2023-04-25T09:01:04;100339.38;;;9.31;100.00
78198;BME280;67472;51.554;7.812;2023-04-25T09:03:58;100343.50;;;9.65;100.00
78198;BME280;67472;51.554;7.812;2023-04-25T09:06:45;100353.94;;;9.97;100.00
78198;BME280;67472;51.554;7.812;2023-04-25T09:09:31;100332.25;;;9.94;95.48
78198;BME280;67472;51.554;7.812;2023-04-25T09:12:19;100320.78;;;10.04;91.09
78198;BME280;67472;51.554;7.812;2023-04-25T09:15:08;100346.06;;;10.77;94.52
78198;BME280;67472;51.554;7.812;2023-04-25T09:18:24;100326.97;;;10.54;88.32
78198;BME280;67472;51.554;7.812;2023-04-25T09:21:11;100329.59;;;10.45;85.83
78198;BME280;67472;51.554;7.812;2023-04-25T09:23:58;100341.50;;;10.39;85.11
78198;BME280;67472;51.554;7.812;2023-04-25T09:26:44;100333.22;;;10.13;82.77
78198;BME280;67472;51.554;7.812;2023-04-25T09:29:34;100347.03;;;10.66;84.74
78198;BME280;67472;51.554;7.812;2023-04-25T09:32:22;100350.53;;;10.76;86.20
78198;BME280;67472;51.554;7.812;2023-04-25T09:35:23;100358.50;;;10.46;85.18
78198;BME280;67472;51.554;7.812;2023-04-25T09:38:12;100371.22;;;10.62;87.08
78198;BME280;67472;51.554;7.812;2023-04-25T09:41:23;100367.66;;;10.42;83.70
78198;BME280;67472;51.554;7.812;2023-04-25T09:44:12;100372.94;;;9.91;82.83
78198;BME280;67472;51.554;7.812;2023-04-25T09:47:02;100385.97;;;9.93;84.41
78198;BME280;67472;51.554;7.812;2023-04-25T09:49:50;100380.94;;;9.80;82.92
78198;BME280;67472;51.554;7.812;2023-04-25T09:52:44;100396.69;;;9.71;86.91
78198;BME280;67472;51.554;7.812;2023-04-25T09:55:35;100402.13;;;9.58;85.92
78198;BME280;67472;51.554;7.812;2023-04-25T09:58:24;100398.19;;;9.52;85.95
78198;BME280;67472;51.554;7.812;2023-04-25T10:01:11;100400.84;;;9.52;85.50
78198;BME280;67472;51.554;7.812;2023-04-25T10:04:19;100392.44;;;9.79;82.06
78198;BME280;67472;51.554;7.812;2023-04-25T10:07:11;100393.06;;;9.51;82.68
78198;BME280;67472;51.554;7.812;2023-04-25T10:10:04;100400.19;;;9.39;82.90
78198;BME280;67472;51.554;7.812;2023-04-25T10:12:52;100416.16;;;9.79;85.17
78198;BME280;67472;51.554;7.812;2023-04-25T10:15:39;100419.31;;;9.94;86.32
78198;BME280;67472;51.554;7.812;2023-04-25T10:18:26;100425.34;;;10.47;87.22
78198;BME280;67472;51.554;7.812;2023-04-25T10:21:14;100395.38;;;10.57;80.51
78198;BME280;67472;51.554;7.812;2023-04-25T10:24:02;100410.66;;;10.94;83.65
78198;BME280;67472;51.554;7.812;2023-04-25T10:26:50;100354.97;;;10.76;74.22
78198;BME280;67472;51.554;7.812;2023-04-25T10:29:37;100359.06;;;11.28;73.68
78198;BME280;67472;51.554;7.812;2023-04-25T10:32:23;100339.41;;;11.69;70.76
78198;BME280;67472;51.554;7.812;2023-04-25T10:35:11;100360.34;;;12.45;72.63
78198;BME280;67472;51.554;7.812;2023-04-25T10:38:03;100316.19;;;12.36;68.35
78198;BME280;67472;51.554;7.812;2023-04-25T10:41:03;100345.78;;;12.32;69.25
78198;BME280;67472;51.554;7.812;2023-04-25T10:43:59;100329.25;;;12.20;68.03
78198;BME280;67472;51.554;7.812;2023-04-25T10:46:45;100326.03;;;11.80;67.76
78198;BME280;67472;51.554;7.812;2023-04-25T10:49:33;100342.47;;;11.64;68.93
78198;BME280;67472;51.554;7.812;2023-04-25T10:52:25;100364.91;;;12.16;70.63
78198;BME280;67472;51.554;7.812;2023-04-25T10:55:14;100341.78;;;11.53;68.08
78198;BME280;67472;51.554;7.812;2023-04-25T10:58:00;100340.38;;;11.68;67.98
78198;BME280;67472;51.554;7.812;2023-04-25T11:00:46;100375.91;;;11.37;70.93
78198;BME280;67472;51.554;7.812;2023-04-25T11:03:38;100365.72;;;11.03;69.72
78198;BME280;67472;51.554;7.812;2023-04-25T11:06:31;100362.25;;;10.44;69.15
78198;BME280;67472;51.554;7.812;2023-04-25T11:09:23;100376.53;;;9.90;70.28
78198;BME280;67472;51.554;7.812;2023-04-25T11:12:14;100388.38;;;9.75;71.09
78198;BME280;67472;51.554;7.812;2023-04-25T11:15:02;100417.94;;;9.58;73.36
78198;BME280;67472;51.554;7.812;2023-04-25T11:17:51;100429.47;;;9.25;75.17
78198;BME280;67472;51.554;7.812;2023-04-25T11:20:37;100463.69;;;8.93;79.66
78198;BME280;67472;51.554;7.812;2023-04-25T11:23:23;100485.56;;;8.83;84.84
78198;BME280;67472;51.554;7.812;2023-04-25T11:26:11;100499.97;;;8.79;89.79
78198;BME280;67472;51.554;7.812;2023-04-25T11:29:00;100506.88;;;8.80;95.49
78198;BME280;67472;51.554;7.812;2023-04-25T11:31:46;100502.69;;;8.66;99.11
78198;BME280;67472;51.554;7.812;2023-04-25T11:34:33;100509.03;;;8.86;100.00
78198;BME280;67472;51.554;7.812;2023-04-25T11:37:20;100504.97;;;8.60;100.00
78198;BME280;67472;51.554;7.812;2023-04-25T11:40:08;100505.81;;;8.71;100.00
78198;BME280;67472;51.554;7.812;2023-04-25T11:42:56;100509.88;;;8.86;100.00
78198;BME280;67472;51.554;7.812;2023-04-25T11:45:48;100502.44;;;9.25;100.00
78198;BME280;67472;51.554;7.812;2023-04-25T11:48:38;100489.91;;;9.38;100.00
78198;BME280;67472;51.554;7.812;2023-04-25T11:51:25;100480.38;;;9.37;96.36
78198;BME280;67472;51.554;7.812;2023-04-25T11:54:12;100474.91;;;9.60;94.17
78198;BME280;67472;51.554;7.812;2023-04-25T11:57:22;100450.94;;;9.52;84.32
78198;BME280;67472;51.554;7.812;2023-04-25T12:01:04;100433.22;;;9.54;79.74
78198;BME280;67472;51.554;7.812;2023-04-25T12:04:19;100430.66;;;10.05;77.76
78198;BME280;67472;51.554;7.812;2023-04-25T12:07:09;100417.03;;;10.21;75.79
78198;BME280;67472;51.554;7.812;2023-04-25T12:09:55;100390.63;;;10.21;70.13
78198;BME280;67472;51.554;7.812;2023-04-25T12:12:43;100370.69;;;10.68;68.44
78198;BME280;67472;51.554;7.812;2023-04-25T12:15:33;100381.03;;;11.00;68.49
78198;BME280;67472;51.554;7.812;2023-04-25T12:18:23;100388.84;;;11.68;68.91
78198;BME280;67472;51.554;7.812;2023-04-25T12:21:09;100373.38;;;11.83;66.57
78198;BME280;67472;51.554;7.812;2023-04-25T12:23:56;100365.38;;;12.12;66.05
78198;BME280;67472;51.554;7.812;2023-04-25T12:26:47;100347.53;;;12.51;63.63
78198;BME280;67472;51.554;7.812;2023-04-25T12:29:34;100332.19;;;12.72;61.90
78198;BME280;67472;51.554;7.812;2023-04-25T12:32:20;100326.88;;;12.72;60.74
78198;BME280;67472;51.554;7.812;2023-04-25T12:35:08;100318.63;;;12.75;60.11
78198;BME280;67472;51.554;7.812;2023-04-25T12:37:55;100354.31;;;12.98;62.44
78198;BME280;67472;51.554;7.812;2023-04-25T12:40:42;100335.31;;;12.85;60.54
78198;BME280;67472;51.554;7.812;2023-04-25T12:43:28;100307.00;;;12.85;57.96
78198;BME280;67472;51.554;7.812;2023-04-25T12:46:15;100317.38;;;12.52;58.37
78198;BME280;67472;51.554;7.812;2023-04-25T12:49:01;100338.00;;;12.75;59.58
78198;BME280;67472;51.554;7.812;2023-04-25T12:51:49;100340.91;;;12.82;59.81
78198;BME280;67472;51.554;7.812;2023-04-25T12:54:36;100313.56;;;12.00;57.85
78198;BME280;67472;51.554;7.812;2023-04-25T12:57:24;100359.44;;;11.62;60.88
78198;BME280;67472;51.554;7.812;2023-04-25T13:00:11;100372.03;;;11.69;61.69
78198;BME280;67472;51.554;7.812;2023-04-25T13:02:59;100377.84;;;11.44;62.01
78198;BME280;67472;51.554;7.812;2023-04-25T13:05:46;100410.91;;;11.00;64.00
78198;BME280;67472;51.554;7.812;2023-04-25T13:08:33;100446.34;;;10.48;66.33
78198;BME280;67472;51.554;7.812;2023-04-25T13:11:21;100477.19;;;10.06;69.33
78198;BME280;67472;51.554;7.812;2023-04-25T13:14:07;100488.38;;;9.35;72.85
78198;BME280;67472;51.554;7.812;2023-04-25T13:16:54;100497.16;;;9.25;74.84
78198;BME280;67472;51.554;7.812;2023-04-25T13:19:40;100511.84;;;9.38;78.55
78198;BME280;67472;51.554;7.812;2023-04-25T13:22:27;100522.84;;;9.43;80.98
78198;BME280;67472;51.554;7.812;2023-04-25T13:25:15;100523.00;;;9.42;81.76
78198;BME280;67472;51.554;7.812;2023-04-25T13:28:01;100517.44;;;9.88;82.61
78198;BME280;67472;51.554;7.812;2023-04-25T13:30:47;100518.69;;;10.15;83.10
78198;BME280;67472;51.554;7.812;2023-04-25T13:33:34;100515.66;;;10.41;82.19
78198;BME280;67472;51.554;7.812;2023-04-25T13:36:20;100519.81;;;10.94;81.65
78198;BME280;67472;51.554;7.812;2023-04-25T13:39:06;100513.53;;;11.35;81.66
78198;BME280;67472;51.554;7.812;2023-04-25T13:41:54;100468.19;;;11.40;73.84
78198;BME280;67472;51.554;7.812;2023-04-25T13:44:40;100476.94;;;11.50;73.59
78198;BME280;67472;51.554;7.812;2023-04-25T13:47:27;100482.94;;;12.28;74.82
78198;BME280;67472;51.554;7.812;2023-04-25T13:50:13;100445.91;;;12.19;70.26
78198;BME280;67472;51.554;7.812;2023-04-25T13:53:01;100448.41;;;12.11;69.25
78198;BME280;67472;51.554;7.812;2023-04-25T13:55:47;100455.59;;;12.37;69.16
78198;BME280;67472;51.554;7.812;2023-04-25T13:58:35;100431.97;;;12.90;67.35
78198;BME280;67472;51.554;7.812;2023-04-25T14:01:21;100421.50;;;12.62;65.45
78198;BME280;67472;51.554;7.812;2023-04-25T14:04:07;100429.13;;;12.28;66.09
78198;BME280;67472;51.554;7.812;2023-04-25T14:06:54;100442.75;;;11.86;66.30
78198;BME280;67472;51.554;7.812;2023-04-25T14:09:40;100454.28;;;11.57;67.78
78198;BME280;67472;51.554;7.812;2023-04-25T14:12:26;100472.50;;;11.50;68.65
78198;BME280;67472;51.554;7.812;2023-04-25T14:15:14;100488.78;;;10.87;70.34
78198;BME280;67472;51.554;7.812;2023-04-25T14:18:01;100522.69;;;10.82;75.97
78198;BME280;67472;51.554;7.812;2023-04-25T14:20:47;100517.19;;;10.43;77.64
78198;BME280;67472;51.554;7.812;2023-04-25T14:23:34;100534.06;;;10.31;82.68
78198;BME280;67472;51.554;7.812;2023-04-25T14:26:20;100540.13;;;10.43;86.37
78198;BME280;67472;51.554;7.812;2023-04-25T14:29:07;100540.13;;;10.43;87.09
78198;BME280;67472;51.554;7.812;2023-04-25T14:31:55;100536.88;;;10.60;85.94
78198;BME280;67472;51.554;7.812;2023-04-25T14:34:42;100528.78;;;10.52;84.45
78198;BME280;67472;51.554;7.812;2023-04-25T14:37:29;100531.59;;;10.60;81.55
78198;BME280;67472;51.554;7.812;2023-04-25T14:40:16;100514.75;;;10.82;79.18
78198;BME280;67472;51.554;7.812;2023-04-25T14:43:02;100519.16;;;11.51;79.87
78198;BME280;67472;51.554;7.812;2023-04-25T14:45:48;100475.69;;;11.44;71.34
78198;BME280;67472;51.554;7.812;2023-04-25T14:48:36;100475.88;;;12.10;70.76
78198;BME280;67472;51.554;7.812;2023-04-25T14:51:23;100456.53;;;12.56;68.32